Time;durP1;ratioP1;P1;durP2;ratioP2;P2;SDS_P1;SDS_P2;PMS_P1;PMS_P2;Temp;Humidity;BMP_temperature;BMP_pressure;BME280_temperature;BME280_humidity;BME280_pressure;Samples;Min_cycle;Max_cycle;Signal;HPM_P1;HPM_P2
2022/12/19 00:01:22;;;;;;;;;;;20.50;29.80;;;;;;4952259;29;19954;-54
2022/12/19 00:03:48;;;;;;;;;;;20.40;29.90;;;;;;4952563;29;19967;-52
2022/12/19 00:06:14;;;;;;;;;;;20.20;30.10;;;;;;4951779;29;19938;-52
2022/12/19 00:08:40;;;;;;;;;;;20.20;30.10;;;;;;4951100;29;19918;-53
2022/12/19 00:11:06;;;;;;;;;;;20.10;30.00;;;;;;4949933;28;20014;-53
2022/12/19 00:13:31;;;;;;;;;;;20.00;30.10;;;;;;4951723;29;19915;-53
2022/12/19 00:16:07;;;;;;;;;;;20.10;30.10;;;;;;4952346;29;19918;-53
2022/12/19 00:18:32;;;;;;;;;;;20.20;29.90;;;;;;4951645;28;19915;-53
2022/12/19 00:20:58;;;;;;;;;;;20.30;29.70;;;;;;4951542;29;20347;-53
2022/12/19 00:23:24;;;;;;;;;;;20.50;29.60;;;;;;4952719;28;20349;-53
2022/12/19 00:25:49;;;;;;;;;;;20.60;29.40;;;;;;4951354;28;20021;-53
2022/12/19 00:28:15;;;;;;;;;;;20.70;29.30;;;;;;4949994;28;19965;-53
2022/12/19 00:30:40;;;;;;;;;;;20.70;29.20;;;;;;4958148;28;19960;-53
2022/12/19 00:33:06;;;;;;;;;;;20.80;29.20;;;;;;4952376;28;19957;-53
2022/12/19 00:35:31;;;;;;;;;;;20.80;29.20;;;;;;4960741;28;19976;-53
2022/12/19 00:37:57;;;;;;;;;;;20.70;29.30;;;;;;4957153;28;19972;-53
2022/12/19 00:40:22;;;;;;;;;;;20.60;29.60;;;;;;4951469;28;20337;-52
2022/12/19 00:42:47;;;;;;;;;;;20.30;29.80;;;;;;4951388;28;19915;-53
2022/12/19 00:45:13;;;;;;;;;;;20.20;30.00;;;;;;4952162;29;19918;-53
2022/12/19 00:47:38;;;;;;;;;;;20.10;30.00;;;;;;4951485;28;19922;-51
2022/12/19 00:50:04;;;;;;;;;;;19.90;30.50;;;;;;4951627;28;19922;-53
2022/12/19 00:52:29;;;;;;;;;;;19.80;30.80;;;;;;4964300;28;19914;-52
2022/12/19 00:54:55;;;;;;;;;;;19.70;30.70;;;;;;4950831;28;19922;-52
2022/12/19 00:57:20;;;;;;;;;;;19.60;30.80;;;;;;4941505;28;19950;-52
2022/12/19 00:59:46;;;;;;;;;;;19.40;31.10;;;;;;4953854;28;20488;-53
2022/12/19 01:02:11;;;;;;;;;;;19.40;31.00;;;;;;4951820;29;19922;-52
2022/12/19 01:04:37;;;;;;;;;;;19.50;30.90;;;;;;4951456;28;19977;-54
2022/12/19 01:07:04;;;;;;;;;;;19.80;30.50;;;;;;4951322;28;19922;-53
2022/12/19 01:09:30;;;;;;;;;;;20.10;30.00;;;;;;4951063;28;20382;-53
2022/12/19 01:14:40;;;;;;;;;;;20.50;29.40;;;;;;4936463;29;19964;-54
2022/12/19 01:17:05;;;;;;;;;;;20.50;29.30;;;;;;4951805;28;20337;-54
2022/12/19 01:19:31;;;;;;;;;;;20.60;29.20;;;;;;4951177;28;19954;-53
2022/12/19 01:21:56;;;;;;;;;;;20.50;29.30;;;;;;4951175;29;19919;-53
2022/12/19 01:24:22;;;;;;;;;;;20.60;29.20;;;;;;4950077;29;19914;-53
2022/12/19 01:26:47;;;;;;;;;;;20.60;29.30;;;;;;4951716;28;19911;-53
2022/12/19 01:29:12;;;;;;;;;;;20.60;29.30;;;;;;4950809;28;19977;-54
2022/12/19 01:31:40;;;;;;;;;;;20.70;29.30;;;;;;4951182;29;21339;-53
2022/12/19 01:34:05;;;;;;;;;;;20.60;29.20;;;;;;4951002;28;19936;-53
2022/12/19 01:36:31;;;;;;;;;;;20.60;29.40;;;;;;4950311;28;19960;-54
2022/12/19 01:38:56;;;;;;;;;;;20.50;29.60;;;;;;4951385;29;20414;-53
2022/12/19 01:41:22;;;;;;;;;;;20.30;29.70;;;;;;4951109;29;20294;-54
2022/12/19 01:43:57;;;;;;;;;;;20.10;29.90;;;;;;4950501;28;19957;-53
2022/12/19 01:46:24;;;;;;;;;;;20.00;30.00;;;;;;4951360;28;20142;-53
2022/12/19 01:48:50;;;;;;;;;;;19.90;30.00;;;;;;4934338;29;20251;-53
2022/12/19 01:51:17;;;;;;;;;;;19.90;30.10;;;;;;4953180;28;19935;-53
2022/12/19 01:53:43;;;;;;;;;;;19.80;30.60;;;;;;4937426;28;19911;-53
2022/12/19 01:56:08;;;;;;;;;;;19.60;30.60;;;;;;4950305;29;19946;-53
2022/12/19 01:58:34;;;;;;;;;;;19.40;30.80;;;;;;4950975;29;19922;-54
2022/12/19 02:01:00;;;;;;;;;;;19.40;30.90;;;;;;4950792;28;19922;-53
2022/12/19 02:03:28;;;;;;;;;;;19.40;30.90;;;;;;4950860;28;19921;-53
2022/12/19 02:05:54;;;;;;;;;;;19.50;30.70;;;;;;4949549;28;20451;-53
2022/12/19 02:08:19;;;;;;;;;;;19.70;30.30;;;;;;4949729;28;19923;-53
2022/12/19 02:10:45;;;;;;;;;;;19.90;29.90;;;;;;4935368;28;19949;-54
2022/12/19 02:13:10;;;;;;;;;;;20.10;29.60;;;;;;4950361;28;20374;-53
2022/12/19 02:15:48;;;;;;;;;;;20.30;29.50;;;;;;4949279;28;19914;-54
2022/12/19 02:18:21;;;;;;;;;;;20.50;29.40;;;;;;4950739;28;19977;-54
2022/12/19 02:20:51;;;;;;;;;;;20.60;29.30;;;;;;4950587;28;20355;-53
2022/12/19 02:23:16;;;;;;;;;;;20.60;29.30;;;;;;4955528;28;20314;-53
2022/12/19 02:26:02;;;;;;;;;;;20.50;29.40;;;;;;4950343;29;19910;-54
2022/12/19 02:28:32;;;;;;;;;;;20.40;29.70;;;;;;4949208;28;20374;-53
2022/12/19 02:31:07;;;;;;;;;;;20.10;29.90;;;;;;4948685;28;19926;-52
2022/12/19 02:33:35;;;;;;;;;;;20.10;29.80;;;;;;4933225;28;19968;-53
2022/12/19 02:36:06;;;;;;;;;;;19.80;30.30;;;;;;4941673;28;19940;-53
2022/12/19 02:38:52;;;;;;;;;;;19.70;30.50;;;;;;5020480;28;19922;-54
2022/12/19 02:41:22;;;;;;;;;;;19.60;30.60;;;;;;4936709;28;20308;-53
2022/12/19 02:43:48;;;;;;;;;;;19.30;31.00;;;;;;4935881;28;20392;-54
2022/12/19 02:46:13;;;;;;;;;;;19.20;31.20;;;;;;4953109;28;19962;-53
2022/12/19 02:48:38;;;;;;;;;;;19.20;31.20;;;;;;4941859;28;20308;-53
2022/12/19 02:51:04;;;;;;;;;;;19.30;30.90;;;;;;4951255;28;20393;-53
2022/12/19 02:53:29;;;;;;;;;;;19.50;30.40;;;;;;5055050;28;20324;-53
2022/12/19 02:56:02;;;;;;;;;;;19.80;30.00;;;;;;5020663;28;19910;-53
2022/12/19 02:58:45;;;;;;;;;;;20.00;29.80;;;;;;4951649;28;20355;-53
2022/12/19 03:01:17;;;;;;;;;;;20.10;29.70;;;;;;4950330;28;19917;-53
2022/12/19 03:04:11;;;;;;;;;;;20.20;29.40;;;;;;4953236;29;20011;-53
2022/12/19 03:06:39;;;;;;;;;;;20.30;29.30;;;;;;5003936;28;20325;-54
2022/12/19 03:09:25;;;;;;;;;;;20.40;29.10;;;;;;4936554;28;19930;-54
2022/12/19 03:11:52;;;;;;;;;;;20.50;29.10;;;;;;4936383;28;20006;-54
2022/12/19 03:14:17;;;;;;;;;;;20.70;29.00;;;;;;4935523;28;19917;-54
2022/12/19 03:16:43;;;;;;;;;;;20.60;29.00;;;;;;4940742;29;20005;-53
2022/12/19 03:19:09;;;;;;;;;;;20.60;29.10;;;;;;4949475;28;19914;-55
2022/12/19 03:21:35;;;;;;;;;;;20.40;29.40;;;;;;4955374;28;20362;-53
2022/12/19 03:24:01;;;;;;;;;;;20.30;29.50;;;;;;4952932;28;19915;-53
2022/12/19 03:26:27;;;;;;;;;;;20.10;29.60;;;;;;4953007;28;19963;-52
2022/12/19 03:28:52;;;;;;;;;;;20.00;29.80;;;;;;4935327;28;20390;-52
2022/12/19 03:31:18;;;;;;;;;;;19.90;30.00;;;;;;4952898;29;20578;-53
2022/12/19 03:33:44;;;;;;;;;;;19.80;30.00;;;;;;4952793;29;19922;-52
2022/12/19 03:36:11;;;;;;;;;;;19.70;30.10;;;;;;4952532;28;19914;-52
2022/12/19 03:38:36;;;;;;;;;;;19.60;30.30;;;;;;4947180;29;20032;-52
2022/12/19 03:41:02;;;;;;;;;;;19.40;30.50;;;;;;4936730;28;20402;-52
2022/12/19 03:43:27;;;;;;;;;;;19.50;30.50;;;;;;4948460;28;20367;-53
2022/12/19 03:45:57;;;;;;;;;;;19.40;30.40;;;;;;4947834;28;19926;-53
2022/12/19 03:48:33;;;;;;;;;;;19.60;30.10;;;;;;4950596;28;20321;-52
2022/12/19 03:51:17;;;;;;;;;;;19.80;30.00;;;;;;4955181;28;19915;-52
2022/12/19 03:53:43;;;;;;;;;;;20.00;29.90;;;;;;4952942;28;20337;-52
2022/12/19 03:56:27;;;;;;;;;;;20.30;29.60;;;;;;4952890;28;19915;-53
2022/12/19 03:58:55;;;;;;;;;;;20.50;29.30;;;;;;4952177;28;20009;-54
2022/12/19 04:01:21;;;;;;;;;;;20.60;29.10;;;;;;4940668;28;19944;-54
2022/12/19 04:03:46;;;;;;;;;;;20.70;29.10;;;;;;4952081;29;19911;-53
2022/12/19 04:06:12;;;;;;;;;;;20.60;29.20;;;;;;4951872;29;19923;-53
2022/12/19 04:08:37;;;;;;;;;;;20.50;29.30;;;;;;4952004;28;19919;-52
2022/12/19 04:11:06;;;;;;;;;;;20.30;29.60;;;;;;4934933;28;19958;-52
2022/12/19 04:13:36;;;;;;;;;;;20.10;29.80;;;;;;4952331;28;19911;-52
2022/12/19 04:16:02;;;;;;;;;;;19.90;30.00;;;;;;4943881;28;20389;-53
2022/12/19 04:18:27;;;;;;;;;;;19.80;30.00;;;;;;4951766;29;19915;-53
2022/12/19 04:21:25;;;;;;;;;;;19.80;30.30;;;;;;4952221;28;19922;-53
2022/12/19 04:23:52;;;;;;;;;;;19.60;30.40;;;;;;4965288;28;19914;-53
2022/12/19 04:26:17;;;;;;;;;;;19.60;30.50;;;;;;4940885;29;19918;-53
2022/12/19 04:28:47;;;;;;;;;;;19.40;30.70;;;;;;4978751;28;19996;-53
2022/12/19 04:31:13;;;;;;;;;;;19.40;30.90;;;;;;4951984;29;19922;-53
2022/12/19 04:33:38;;;;;;;;;;;19.20;31.20;;;;;;4950922;29;20364;-53
2022/12/19 04:36:04;;;;;;;;;;;19.20;31.00;;;;;;4952019;28;20273;-53
2022/12/19 04:38:29;;;;;;;;;;;19.30;30.90;;;;;;4951728;28;19914;-53
2022/12/19 04:40:55;;;;;;;;;;;19.50;30.60;;;;;;4951658;28;19938;-53
2022/12/19 04:43:21;;;;;;;;;;;19.80;30.20;;;;;;4950807;28;20402;-53
2022/12/19 04:45:46;;;;;;;;;;;20.00;29.80;;;;;;4952133;29;20017;-53
2022/12/19 04:48:11;;;;;;;;;;;20.20;29.60;;;;;;4950431;29;19918;-53
2022/12/19 04:50:37;;;;;;;;;;;20.40;29.50;;;;;;4951455;29;19952;-53
2022/12/19 04:53:02;;;;;;;;;;;20.50;29.40;;;;;;5012190;28;19946;-52
2022/12/19 04:55:28;;;;;;;;;;;20.40;29.40;;;;;;4951482;28;19938;-52
2022/12/19 04:57:53;;;;;;;;;;;20.40;29.50;;;;;;4951120;29;19922;-52
2022/12/19 05:00:19;;;;;;;;;;;20.20;29.70;;;;;;4951278;28;19957;-53
2022/12/19 05:02:44;;;;;;;;;;;20.10;29.80;;;;;;4951098;28;19915;-52
2022/12/19 05:05:09;;;;;;;;;;;20.00;30.00;;;;;;4951438;29;19929;-53
2022/12/19 05:07:35;;;;;;;;;;;19.80;30.30;;;;;;4951726;28;20441;-53
2022/12/19 05:10:01;;;;;;;;;;;19.60;30.40;;;;;;4951129;28;19919;-53
2022/12/19 05:12:29;;;;;;;;;;;19.50;30.70;;;;;;4951428;28;20379;-53
2022/12/19 05:14:55;;;;;;;;;;;19.50;30.70;;;;;;4951168;28;19910;-53
2022/12/19 05:17:20;;;;;;;;;;;19.40;30.80;;;;;;4951758;28;19946;-53
2022/12/19 05:19:45;;;;;;;;;;;19.30;31.00;;;;;;4950728;28;19914;-53
2022/12/19 05:22:11;;;;;;;;;;;19.30;31.00;;;;;;4954294;28;19921;-53
2022/12/19 05:24:36;;;;;;;;;;;19.30;30.90;;;;;;4963354;28;19922;-53
2022/12/19 05:27:02;;;;;;;;;;;19.40;30.70;;;;;;4951525;28;20009;-53
2022/12/19 05:29:27;;;;;;;;;;;19.60;30.40;;;;;;4950836;28;19918;-53
2022/12/19 05:31:53;;;;;;;;;;;19.70;30.20;;;;;;4952913;28;20333;-53
2022/12/19 05:34:18;;;;;;;;;;;20.00;29.80;;;;;;4950715;29;20008;-53
2022/12/19 05:36:43;;;;;;;;;;;20.20;29.70;;;;;;4950515;29;19926;-53
2022/12/19 05:39:10;;;;;;;;;;;20.40;29.50;;;;;;4951197;28;19944;-53
2022/12/19 05:41:35;;;;;;;;;;;20.50;29.50;;;;;;4950545;28;19961;-53
2022/12/19 05:44:01;;;;;;;;;;;20.50;29.50;;;;;;4951007;28;19954;-53
2022/12/19 05:46:26;;;;;;;;;;;20.40;29.60;;;;;;4953300;28;19968;-53
2022/12/19 05:48:52;;;;;;;;;;;20.30;29.80;;;;;;4948568;28;19918;-53
2022/12/19 05:51:17;;;;;;;;;;;20.20;30.00;;;;;;4966060;28;20377;-53
2022/12/19 05:53:43;;;;;;;;;;;20.00;30.10;;;;;;4955556;28;20458;-53
2022/12/19 05:56:09;;;;;;;;;;;19.90;30.20;;;;;;4948159;28;19937;-53
2022/12/19 05:58:35;;;;;;;;;;;19.70;30.50;;;;;;4950243;28;19915;-53
2022/12/19 06:01:08;;;;;;;;;;;19.50;30.70;;;;;;4933694;29;19917;-53
2022/12/19 06:03:33;;;;;;;;;;;19.40;31.20;;;;;;4946415;28;20408;-53
2022/12/19 06:06:02;;;;;;;;;;;19.30;31.30;;;;;;4950852;29;19961;-53
2022/12/19 06:08:28;;;;;;;;;;;19.20;31.40;;;;;;4949029;28;19919;-53
2022/12/19 06:10:53;;;;;;;;;;;19.10;31.60;;;;;;4950990;28;19980;-53
2022/12/19 06:13:19;;;;;;;;;;;19.00;31.40;;;;;;4946620;28;20001;-54
2022/12/19 06:15:44;;;;;;;;;;;19.20;31.30;;;;;;4945477;28;19922;-54
2022/12/19 06:18:10;;;;;;;;;;;19.40;31.00;;;;;;4951458;28;19915;-53
2022/12/19 06:20:35;;;;;;;;;;;19.80;30.50;;;;;;4963837;28;20035;-53
2022/12/19 06:23:01;;;;;;;;;;;19.90;30.10;;;;;;4964978;28;19972;-54
2022/12/19 06:25:26;;;;;;;;;;;20.10;30.00;;;;;;4962382;28;19917;-54
2022/12/19 06:27:51;;;;;;;;;;;20.30;29.90;;;;;;4953094;29;19915;-53
2022/12/19 06:30:17;;;;;;;;;;;20.40;29.90;;;;;;4953259;29;19918;-53
2022/12/19 06:32:42;;;;;;;;;;;20.40;30.30;;;;;;4952924;29;20009;-53
2022/12/19 06:35:08;;;;;;;;;;;20.30;29.90;;;;;;4942456;28;19966;-53
2022/12/19 06:37:33;;;;;;;;;;;20.20;30.00;;;;;;4949339;29;20390;-52
2022/12/19 06:39:59;;;;;;;;;;;20.10;30.20;;;;;;4949014;28;19918;-53
2022/12/19 06:42:24;;;;;;;;;;;20.00;30.30;;;;;;4952759;29;19915;-52
2022/12/19 06:44:50;;;;;;;;;;;19.80;30.60;;;;;;4953174;29;19921;-53
2022/12/19 06:47:16;;;;;;;;;;;19.60;30.90;;;;;;4954092;28;19921;-53
2022/12/19 06:49:41;;;;;;;;;;;19.50;31.30;;;;;;4953711;28;19918;-53
2022/12/19 06:52:07;;;;;;;;;;;19.30;31.40;;;;;;4983180;28;20016;-52
2022/12/19 06:54:32;;;;;;;;;;;19.20;31.40;;;;;;4953287;29;19918;-52
2022/12/19 06:56:57;;;;;;;;;;;19.10;31.60;;;;;;4953361;29;19988;-54
2022/12/19 06:59:23;;;;;;;;;;;19.10;31.70;;;;;;4949795;28;19930;-54
2022/12/19 07:02:06;;;;;;;;;;;19.20;31.40;;;;;;4947611;28;20020;-53
2022/12/19 07:04:36;;;;;;;;;;;19.40;30.90;;;;;;4951115;28;20021;-53
2022/12/19 07:07:01;;;;;;;;;;;19.70;30.60;;;;;;4952520;28;19919;-53
2022/12/19 07:09:27;;;;;;;;;;;19.90;30.20;;;;;;4953096;29;20362;-54
2022/12/19 07:11:52;;;;;;;;;;;20.10;30.00;;;;;;4952920;29;19922;-53
2022/12/19 07:14:18;;;;;;;;;;;20.20;29.90;;;;;;4952904;29;20281;-52
2022/12/19 07:16:43;;;;;;;;;;;20.30;29.90;;;;;;4952181;29;20302;-53
2022/12/19 07:19:09;;;;;;;;;;;20.40;29.80;;;;;;4935684;28;20271;-54
2022/12/19 07:21:34;;;;;;;;;;;20.30;29.80;;;;;;4951232;28;20000;-54
2022/12/19 07:24:00;;;;;;;;;;;20.30;30.00;;;;;;4951838;28;19915;-52
2022/12/19 07:26:25;;;;;;;;;;;20.10;30.00;;;;;;4952835;28;20002;-52
2022/12/19 07:28:51;;;;;;;;;;;20.00;30.20;;;;;;4951276;28;19926;-53
2022/12/19 07:31:17;;;;;;;;;;;19.90;30.30;;;;;;4953069;28;20302;-53
2022/12/19 07:33:42;;;;;;;;;;;19.80;30.50;;;;;;4950887;29;19914;-52
2022/12/19 07:36:08;;;;;;;;;;;19.70;30.60;;;;;;4953337;28;19919;-53
2022/12/19 07:38:33;;;;;;;;;;;19.60;30.90;;;;;;4949033;29;20346;-53
2022/12/19 07:40:59;;;;;;;;;;;19.50;31.00;;;;;;4950642;29;19915;-53
2022/12/19 07:43:25;;;;;;;;;;;19.40;31.20;;;;;;4950523;28;19921;-52
2022/12/19 07:45:54;;;;;;;;;;;19.30;31.40;;;;;;4950591;29;19914;-52
2022/12/19 07:48:19;;;;;;;;;;;19.20;31.60;;;;;;4949854;28;19925;-53
2022/12/19 07:50:45;;;;;;;;;;;19.20;31.70;;;;;;4952424;29;19914;-54
2022/12/19 07:53:11;;;;;;;;;;;19.40;31.40;;;;;;5032701;28;20390;-52
2022/12/19 07:55:36;;;;;;;;;;;19.70;30.90;;;;;;4951739;28;19915;-51
2022/12/19 07:58:02;;;;;;;;;;;19.90;30.60;;;;;;4951880;28;19915;-52
2022/12/19 08:00:27;;;;;;;;;;;20.10;30.40;;;;;;4946765;28;20013;-51
2022/12/19 08:02:52;;;;;;;;;;;20.30;30.10;;;;;;4935797;29;20662;-52
2022/12/19 08:05:18;;;;;;;;;;;20.40;30.00;;;;;;4950783;29;19926;-52
2022/12/19 08:07:43;;;;;;;;;;;20.40;30.00;;;;;;4950284;28;19973;-52
2022/12/19 08:10:11;;;;;;;;;;;20.40;30.00;;;;;;4940825;28;19919;-52
2022/12/19 08:12:36;;;;;;;;;;;20.40;30.20;;;;;;4946198;28;19915;-52
2022/12/19 08:15:02;;;;;;;;;;;20.10;30.40;;;;;;4952775;28;20066;-53
2022/12/19 08:17:27;;;;;;;;;;;20.00;30.60;;;;;;4953843;28;19981;-52
2022/12/19 08:19:53;;;;;;;;;;;19.90;30.90;;;;;;4950243;28;20392;-52
2022/12/19 08:22:18;;;;;;;;;;;19.90;31.00;;;;;;4952875;28;19915;-53
2022/12/19 08:24:44;;;;;;;;;;;19.60;31.30;;;;;;4951591;28;20018;-53
2022/12/19 08:27:09;;;;;;;;;;;19.50;31.50;;;;;;4951827;28;19941;-53
2022/12/19 08:29:35;;;;;;;;;;;19.30;31.70;;;;;;4948459;28;19918;-52
2022/12/19 08:32:00;;;;;;;;;;;19.20;32.00;;;;;;4948136;28;19922;-53
2022/12/19 08:34:25;;;;;;;;;;;19.20;32.10;;;;;;4940917;28;20333;-53
2022/12/19 08:36:51;;;;;;;;;;;19.30;32.20;;;;;;4950012;28;20272;-52
2022/12/19 08:39:16;;;;;;;;;;;19.90;31.80;;;;;;4947399;28;20298;-54
2022/12/19 08:41:42;;;;;;;;;;;20.60;30.70;;;;;;4950814;29;19914;-55
2022/12/19 08:44:09;;;;;;;;;;;21.30;30.00;;;;;;4950218;29;19918;-52
2022/12/19 08:46:34;;;;;;;;;;;21.70;29.50;;;;;;4934583;28;19923;-53
2022/12/19 08:49:00;;;;;;;;;;;21.90;29.20;;;;;;4951947;28;19918;-52
2022/12/19 08:51:25;;;;;;;;;;;22.10;29.10;;;;;;4950386;28;19915;-53
2022/12/19 08:53:51;;;;;;;;;;;22.30;29.00;;;;;;4945888;28;19921;-53
2022/12/19 08:56:20;;;;;;;;;;;22.50;29.00;;;;;;4947474;28;19919;-52
2022/12/19 08:58:45;;;;;;;;;;;22.50;29.10;;;;;;4944020;28;19936;-52
2022/12/19 09:01:14;;;;;;;;;;;22.70;29.10;;;;;;4948725;28;19922;-53
2022/12/19 09:03:39;;;;;;;;;;;22.80;29.20;;;;;;4953021;28;19919;-53
2022/12/19 09:06:05;;;;;;;;;;;22.80;29.10;;;;;;4947045;28;19931;-53
2022/12/19 09:08:31;;;;;;;;;;;22.90;29.20;;;;;;4946228;28;19937;-53
2022/12/19 09:10:57;;;;;;;;;;;23.00;29.20;;;;;;4945645;28;19959;-50
2022/12/19 09:13:23;;;;;;;;;;;23.00;29.20;;;;;;4946212;28;19922;-53
2022/12/19 09:15:49;;;;;;;;;;;23.00;29.20;;;;;;4941848;28;20386;-53
2022/12/19 09:18:14;;;;;;;;;;;23.10;29.20;;;;;;4948042;28;19922;-52
2022/12/19 09:20:39;;;;;;;;;;;23.10;29.30;;;;;;4945822;28;20021;-52
2022/12/19 09:23:05;;;;;;;;;;;23.10;29.30;;;;;;4944787;28;19976;-52
2022/12/19 09:25:30;;;;;;;;;;;23.10;29.30;;;;;;4942996;28;19914;-53
2022/12/19 09:27:56;;;;;;;;;;;23.20;29.30;;;;;;4946368;29;19919;-52
2022/12/19 09:30:21;;;;;;;;;;;23.30;29.30;;;;;;4959152;28;20125;-52
2022/12/19 09:32:47;;;;;;;;;;;23.30;29.10;;;;;;4947729;28;19957;-52
2022/12/19 09:35:12;;;;;;;;;;;23.30;29.30;;;;;;4950347;28;19915;-53
2022/12/19 09:37:37;;;;;;;;;;;23.20;29.20;;;;;;4950256;28;19941;-54
2022/12/19 09:40:03;;;;;;;;;;;23.30;29.40;;;;;;4946678;28;19980;-53
2022/12/19 09:42:44;;;;;;;;;;;23.30;29.30;;;;;;4946112;29;20017;-53
2022/12/19 09:45:12;;;;;;;;;;;23.40;29.20;;;;;;4946599;29;19922;-53
2022/12/19 09:47:38;;;;;;;;;;;23.40;29.20;;;;;;4947063;29;20344;-53
2022/12/19 09:50:04;;;;;;;;;;;23.50;29.30;;;;;;4938541;28;19922;-52
2022/12/19 09:52:36;;;;;;;;;;;23.50;29.30;;;;;;4971815;28;19972;-53
2022/12/19 09:55:15;;;;;;;;;;;23.50;29.20;;;;;;4952224;28;19963;-52
2022/12/19 09:57:44;;;;;;;;;;;23.50;29.30;;;;;;4936533;28;20385;-53
2022/12/19 10:00:18;;;;;;;;;;;23.60;29.30;;;;;;4944028;28;19914;-53
2022/12/19 10:02:46;;;;;;;;;;;23.50;29.30;;;;;;4933231;29;20420;-53
2022/12/19 10:05:14;;;;;;;;;;;23.50;29.30;;;;;;4930215;28;19923;-53
2022/12/19 10:07:40;;;;;;;;;;;23.50;29.40;;;;;;4944801;28;19918;-54
2022/12/19 10:10:05;;;;;;;;;;;23.50;29.50;;;;;;4946859;28;19923;-53
2022/12/19 10:12:31;;;;;;;;;;;23.60;29.60;;;;;;4946094;28;20002;-52
2022/12/19 10:15:08;;;;;;;;;;;23.60;29.70;;;;;;4947472;28;20015;-55
2022/12/19 10:17:46;;;;;;;;;;;23.60;29.60;;;;;;4947996;28;19929;-51
2022/12/19 10:20:14;;;;;;;;;;;23.70;29.50;;;;;;4945030;28;19915;-53
2022/12/19 10:22:45;;;;;;;;;;;23.70;29.50;;;;;;4951589;28;19910;-52
2022/12/19 10:25:14;;;;;;;;;;;23.70;29.70;;;;;;4953453;28;19921;-52
2022/12/19 10:27:50;;;;;;;;;;;23.80;29.60;;;;;;4955392;28;19929;-51
2022/12/19 10:30:16;;;;;;;;;;;23.80;29.50;;;;;;4952972;28;19924;-51
2022/12/19 10:33:02;;;;;;;;;;;23.80;29.50;;;;;;4957906;28;19915;-52
2022/12/19 10:35:29;;;;;;;;;;;23.80;29.60;;;;;;4963966;28;20004;-51
2022/12/19 10:38:10;;;;;;;;;;;23.80;29.70;;;;;;4949802;28;20017;-53
2022/12/19 10:40:37;;;;;;;;;;;23.80;29.60;;;;;;4952675;28;19922;-54
2022/12/19 10:43:15;;;;;;;;;;;23.80;29.50;;;;;;4959383;28;20531;-53
2022/12/19 10:45:44;;;;;;;;;;;23.80;29.60;;;;;;4960744;28;19918;-53
2022/12/19 10:48:16;;;;;;;;;;;23.80;29.70;;;;;;4930858;28;20393;-52
2022/12/19 10:50:42;;;;;;;;;;;23.90;29.70;;;;;;4946327;28;20760;-53
2022/12/19 10:53:07;;;;;;;;;;;23.90;29.70;;;;;;4931950;28;19975;-53
2022/12/19 10:55:36;;;;;;;;;;;23.90;29.70;;;;;;4949468;28;19911;-53
2022/12/19 10:58:09;;;;;;;;;;;23.90;29.80;;;;;;4950914;28;19922;-52
2022/12/19 11:00:35;;;;;;;;;;;24.00;29.70;;;;;;4962972;28;19922;-53
2022/12/19 11:03:07;;;;;;;;;;;24.00;29.70;;;;;;4954139;28;19914;-54
2022/12/19 11:05:51;;;;;;;;;;;23.90;29.70;;;;;;4948823;28;19922;-53
2022/12/19 11:08:18;;;;;;;;;;;24.00;29.80;;;;;;4954254;28;20302;-53
2022/12/19 11:10:50;;;;;;;;;;;24.00;29.90;;;;;;4955904;28;19969;-54
2022/12/19 11:13:25;;;;;;;;;;;24.00;29.90;;;;;;4952216;28;20405;-53
2022/12/19 11:16:00;;;;;;;;;;;24.00;30.00;;;;;;4952825;28;19913;-53
2022/12/19 11:18:35;;;;;;;;;;;24.00;30.00;;;;;;4952229;28;19915;-54
2022/12/19 11:21:03;;;;;;;;;;;24.00;30.00;;;;;;4954004;28;19915;-53
2022/12/19 11:23:28;;;;;;;;;;;24.00;30.00;;;;;;4959553;28;19918;-55
2022/12/19 11:25:55;;;;;;;;;;;24.00;30.00;;;;;;4952986;28;19941;-54
2022/12/19 11:28:22;;;;;;;;;;;24.10;30.00;;;;;;4950962;28;20422;-54
2022/12/19 11:31:14;;;;;;;;;;;24.10;30.20;;;;;;4952615;28;19922;-53
2022/12/19 11:33:42;;;;;;;;;;;24.10;30.30;;;;;;4947753;28;19922;-51
2022/12/19 11:36:09;;;;;;;;;;;24.10;30.20;;;;;;4932487;28;20390;-53
2022/12/19 11:38:39;;;;;;;;;;;24.10;30.20;;;;;;4930106;28;20009;-52
2022/12/19 11:41:10;;;;;;;;;;;24.20;30.30;;;;;;4958080;28;19922;-53
2022/12/19 11:43:43;;;;;;;;;;;24.20;30.20;;;;;;4946259;28;19922;-54
2022/12/19 11:46:10;;;;;;;;;;;24.20;30.30;;;;;;4941353;28;19922;-54
2022/12/19 11:48:38;;;;;;;;;;;24.20;30.30;;;;;;4948420;28;20019;-54
2022/12/19 11:51:11;;;;;;;;;;;24.20;30.40;;;;;;4950322;28;19923;-54
2022/12/19 11:53:44;;;;;;;;;;;24.30;30.60;;;;;;4929811;28;19961;-54
2022/12/19 11:56:10;;;;;;;;;;;24.20;30.50;;;;;;4946437;28;19914;-53
2022/12/19 11:58:36;;;;;;;;;;;24.30;30.50;;;;;;4929250;28;19944;-53
2022/12/19 12:01:06;;;;;;;;;;;24.30;30.60;;;;;;4950645;28;19915;-53
2022/12/19 12:03:51;;;;;;;;;;;24.30;30.50;;;;;;4945654;28;19914;-54
2022/12/19 12:06:16;;;;;;;;;;;24.30;30.50;;;;;;4949019;28;19926;-53
2022/12/19 12:08:48;;;;;;;;;;;24.30;30.70;;;;;;4943464;28;19929;-53
2022/12/19 12:11:22;;;;;;;;;;;24.30;30.60;;;;;;4947621;28;20298;-53
2022/12/19 12:13:57;;;;;;;;;;;24.40;30.80;;;;;;4950644;28;19937;-53
2022/12/19 12:16:23;;;;;;;;;;;24.40;30.60;;;;;;4978169;28;19915;-53
2022/12/19 12:18:52;;;;;;;;;;;24.40;30.70;;;;;;5016085;28;20023;-53
2022/12/19 12:21:24;;;;;;;;;;;24.40;30.60;;;;;;4927874;28;19945;-55
2022/12/19 12:24:05;;;;;;;;;;;24.50;30.60;;;;;;4958310;28;19918;-54
2022/12/19 12:26:40;;;;;;;;;;;24.50;30.60;;;;;;4960167;28;19921;-54
2022/12/19 12:29:14;;;;;;;;;;;24.50;30.60;;;;;;4931100;28;19969;-53
2022/12/19 12:31:45;;;;;;;;;;;24.40;30.60;;;;;;4940584;28;20367;-54
2022/12/19 12:34:29;;;;;;;;;;;24.40;30.60;;;;;;4954101;28;19984;-53
2022/12/19 12:37:13;;;;;;;;;;;24.40;30.60;;;;;;4968195;28;19919;-53
2022/12/19 12:40:14;;;;;;;;;;;24.40;30.80;;;;;;4955879;28;19923;-53
2022/12/19 12:42:58;;;;;;;;;;;24.50;30.90;;;;;;4924101;28;20276;-53
2022/12/19 12:45:43;;;;;;;;;;;24.50;31.00;;;;;;4946528;28;19918;-53
2022/12/19 12:48:32;;;;;;;;;;;24.40;30.90;;;;;;4950273;28;19919;-52
2022/12/19 12:50:57;;;;;;;;;;;24.50;31.10;;;;;;4968044;28;19930;-53
2022/12/19 12:53:23;;;;;;;;;;;24.50;31.00;;;;;;4948188;28;20351;-53
2022/12/19 12:55:49;;;;;;;;;;;24.50;31.00;;;;;;4944191;28;19976;-52
2022/12/19 12:58:33;;;;;;;;;;;24.50;31.00;;;;;;4946965;28;19950;-53
2022/12/19 13:01:08;;;;;;;;;;;24.50;30.90;;;;;;4954255;28;20500;-51
2022/12/19 13:03:34;;;;;;;;;;;24.60;30.80;;;;;;4956533;28;20477;-53
2022/12/19 13:06:03;;;;;;;;;;;24.60;30.80;;;;;;4949488;28;19927;-52
2022/12/19 13:08:47;;;;;;;;;;;24.60;31.00;;;;;;4959069;28;19923;-53
2022/12/19 13:14:22;;;;;;;;;;;24.60;31.10;;;;;;4965002;28;19983;-53
2022/12/19 13:16:47;;;;;;;;;;;24.60;31.20;;;;;;4948057;28;19914;-53
2022/12/19 13:19:13;;;;;;;;;;;24.60;31.10;;;;;;4953366;28;19934;-53
2022/12/19 13:21:57;;;;;;;;;;;24.60;31.30;;;;;;4960646;28;19915;-53
2022/12/19 13:24:23;;;;;;;;;;;24.60;31.30;;;;;;4943588;28;19915;-52
2022/12/19 13:26:49;;;;;;;;;;;24.60;31.30;;;;;;4956736;28;19918;-52
2022/12/19 13:29:25;;;;;;;;;;;24.60;31.40;;;;;;4953278;28;19926;-54
2022/12/19 13:32:09;;;;;;;;;;;24.60;31.30;;;;;;4956910;28;19914;-54
2022/12/19 13:34:36;;;;;;;;;;;24.60;31.40;;;;;;4953135;28;19930;-54
2022/12/19 13:37:19;;;;;;;;;;;24.60;31.40;;;;;;4962497;28;20099;-53
2022/12/19 13:40:08;;;;;;;;;;;24.60;31.30;;;;;;4953068;28;19958;-53
2022/12/19 13:45:21;;;;;;;;;;;24.60;31.40;;;;;;4947594;28;20331;-54
2022/12/19 13:47:46;;;;;;;;;;;24.70;31.40;;;;;;4949120;28;19985;-53
2022/12/19 13:50:24;;;;;;;;;;;24.70;31.40;;;;;;4954501;28;19922;-53
2022/12/19 13:52:50;;;;;;;;;;;24.70;31.40;;;;;;4951224;28;20057;-54
2022/12/19 13:55:15;;;;;;;;;;;24.70;31.40;;;;;;4953722;28;20371;-54
2022/12/19 13:57:40;;;;;;;;;;;24.70;31.40;;;;;;4956846;28;20389;-54
2022/12/19 14:00:07;;;;;;;;;;;24.70;31.40;;;;;;4948472;28;20353;-53
2022/12/19 14:02:33;;;;;;;;;;;24.70;31.30;;;;;;4953164;28;19921;-53
2022/12/19 14:04:59;;;;;;;;;;;24.80;31.50;;;;;;4947768;28;19923;-54
2022/12/19 14:07:35;;;;;;;;;;;24.80;31.50;;;;;;4954637;28;19922;-54
2022/12/19 14:10:00;;;;;;;;;;;24.80;31.50;;;;;;4952836;28;19919;-54
2022/12/19 14:15:21;;;;;;;;;;;24.80;31.50;;;;;;4952425;28;20385;-53
2022/12/19 14:17:47;;;;;;;;;;;24.80;31.40;;;;;;4950228;28;19923;-53
2022/12/19 14:20:20;;;;;;;;;;;24.80;31.40;;;;;;4949363;28;19914;-53
2022/12/19 14:22:45;;;;;;;;;;;24.90;31.50;;;;;;4952574;28;19919;-53
2022/12/19 14:25:11;;;;;;;;;;;24.90;31.30;;;;;;4947857;28;19981;-53
2022/12/19 14:27:38;;;;;;;;;;;24.90;31.50;;;;;;4950556;28;19968;-53
2022/12/19 14:30:10;;;;;;;;;;;24.90;31.30;;;;;;4953273;28;19922;-53
2022/12/19 14:32:36;;;;;;;;;;;24.90;31.40;;;;;;4951179;28;19918;-53
2022/12/19 14:35:03;;;;;;;;;;;24.90;31.50;;;;;;4955034;28;19921;-54